首页
METAR-TAF:

METAR-TAF

机场 :

福賈, 意大利

纬度: 41-32N, 经度: 015-43E, 海拔: 57米

当前天气观测

该预报发布于25分钟前的18:55 UTC
风速2节,风向西转西南
温度 10°C
湿度 93%
气压 1012 hPa
能見度: 8000

METAR: LIBA 301855Z 24002KT 8000 NSC 10/09 Q1012 RMK BKN SCT100 BKN180 VIS MIN 8000 WIND THR11 25002KT WIND THR29 /////KT BLU

时间: 21:20 (19:20 UTC)

预报

该预报发布于2小时和20分钟前的17:00 UTC
预报有效从30日的 18点(UTC)到 31日的 03点(UTC)
风速8节,风向
能見度: 7000
少量云层高于3000英尺
成为
从 30日的 20点(UTC)到 30日的 22点(UTC)
风速6节,风向西转西北
能見度: 5000
散云层高于2000英尺
轻雾

TAF: LIBA 301700Z 3018/3103 09008KT 7000 FEW030 BECMG 3020/3022 30006KT 5000 BR SCT020

超过4000个机场的气象观测和天气预报(METAR&TAF报告)。

可查询的气象台以黄色和红色小点在地图上表示。

将鼠标移到小点上方,可查看气象台名称。

然后点击查看天气观测和预报。

如需切换地图:点击带黑十字的绿色按钮放大地图;点击带横线的绿色按钮缩小地图;或者点击绿色箭头查看邻近地区的地图。


METAR-TAF: